Time;durP1;ratioP1;P1;durP2;ratioP2;P2;SDS_P1;SDS_P2;PMS_P1;PMS_P2;Temp;Humidity;BMP_temperature;BMP_pressure;BME280_temperature;BME280_humidity;BME280_pressure;Samples;Min_cycle;Max_cycle;Signal;HPM_P1;HPM_P2
2022/09/28 00:01:54;;;;;;;2.95;2.65;;;9.40;99.90;;;;;;5014184;28;20413;-45
2022/09/28 00:04:20;;;;;;;10.00;2.47;;;9.40;99.90;;;;;;5014461;28;20022;-44
2022/09/28 00:06:46;;;;;;;6.50;2.33;;;9.40;99.90;;;;;;5014510;28;20025;-43
2022/09/28 00:09:15;;;;;;;5.70;2.35;;;9.40;99.90;;;;;;5014411;28;20022;-42
2022/09/28 00:11:42;;;;;;;4.90;2.40;;;9.30;99.90;;;;;;5014226;28;20143;-45
2022/09/28 00:14:09;;;;;;;3.00;2.10;;;9.30;99.90;;;;;;5014178;28;20022;-44
2022/09/28 00:16:37;;;;;;;6.85;2.88;;;9.30;99.90;;;;;;5014336;28;20026;-42
2022/09/28 00:19:04;;;;;;;4.70;3.17;;;9.30;99.90;;;;;;5015306;28;20358;-43
2022/09/28 00:21:32;;;;;;;7.68;2.65;;;9.30;99.90;;;;;;5014310;28;20026;-48
2022/09/28 00:24:11;;;;;;;25.98;16.48;;;9.30;99.90;;;;;;5013708;28;20030;-49
2022/09/28 00:26:39;;;;;;;20.05;11.20;;;9.30;99.90;;;;;;5014053;28;20033;-45
2022/09/28 00:29:06;;;;;;;3.28;2.75;;;9.30;99.90;;;;;;5013833;28;20040;-44
2022/09/28 00:31:33;;;;;;;4.10;2.47;;;9.30;99.90;;;;;;5013813;28;20037;-48
2022/09/28 00:34:00;;;;;;;6.60;3.08;;;9.30;99.90;;;;;;5013534;28;20025;-45
2022/09/28 00:36:28;;;;;;;3.67;3.10;;;9.40;99.90;;;;;;5013730;28;20506;-44
2022/09/28 00:38:57;;;;;;;2.88;2.55;;;9.40;99.90;;;;;;5013556;28;20034;-45
2022/09/28 00:41:25;;;;;;;5.10;3.40;;;9.40;99.90;;;;;;5014112;28;20030;-44
2022/09/28 00:43:51;;;;;;;3.13;2.83;;;9.40;99.90;;;;;;5013402;28;20109;-47
2022/09/28 00:46:34;;;;;;;4.60;3.20;;;9.40;99.90;;;;;;5013572;28;20085;-47
2022/09/28 00:49:03;;;;;;;3.22;2.92;;;9.40;99.90;;;;;;5013173;28;20402;-44
2022/09/28 00:51:30;;;;;;;3.13;2.70;;;9.40;99.90;;;;;;5013526;28;20486;-47
2022/09/28 00:53:59;;;;;;;5.55;3.50;;;9.50;99.90;;;;;;5012431;28;20393;-46
2022/09/28 00:56:29;;;;;;;9.45;3.85;;;9.50;99.90;;;;;;5013227;28;20455;-49
2022/09/28 00:58:56;;;;;;;5.95;3.22;;;9.50;99.90;;;;;;5013305;28;20025;-48
2022/09/28 01:01:22;;;;;;;5.45;3.58;;;9.50;99.90;;;;;;5013581;28;20026;-45
2022/09/28 01:03:47;;;;;;;3.15;2.95;;;9.40;99.90;;;;;;5012940;28;20084;-45
2022/09/28 01:06:23;;;;;;;6.38;3.30;;;9.50;99.90;;;;;;5013433;28;20105;-45
2022/09/28 01:08:51;;;;;;;7.00;2.83;;;9.50;99.90;;;;;;5012993;28;20494;-44
2022/09/28 01:11:18;;;;;;;3.50;3.20;;;9.60;99.90;;;;;;5013290;28;20021;-43
2022/09/28 01:13:46;;;;;;;3.10;2.80;;;9.50;99.90;;;;;;5012651;28;20113;-44
2022/09/28 01:16:30;;;;;;;6.95;2.90;;;9.60;99.90;;;;;;5013056;28;20018;-45
2022/09/28 01:19:06;;;;;;;6.28;2.90;;;9.60;99.90;;;;;;5013014;28;20073;-45
2022/09/28 01:21:43;;;;;;;3.67;3.00;;;9.60;99.90;;;;;;5013136;28;20030;-44
2022/09/28 01:24:19;;;;;;;6.63;3.88;;;9.60;99.90;;;;;;5012773;28;20051;-44
2022/09/28 01:27:13;;;;;;;3.58;2.58;;;9.60;99.90;;;;;;5013237;28;20026;-43
2022/09/28 01:29:53;;;;;;;2.85;2.60;;;9.60;99.90;;;;;;5013054;28;20017;-47
2022/09/28 01:32:48;;;;;;;5.43;2.65;;;9.60;99.90;;;;;;5013138;28;20056;-44
2022/09/28 01:35:21;;;;;;;4.82;2.58;;;9.60;99.90;;;;;;5012734;28;20390;-44
2022/09/28 01:37:53;;;;;;;2.85;2.58;;;9.60;99.90;;;;;;5012843;28;20517;-44
2022/09/28 01:40:21;;;;;;;5.65;3.35;;;9.60;99.90;;;;;;5012523;28;20022;-47
2022/09/28 01:42:53;;;;;;;4.75;3.03;;;9.70;99.90;;;;;;5012511;28;20022;-44
2022/09/28 01:45:53;;;;;;;3.88;2.30;;;9.70;99.90;;;;;;5012904;28;20029;-43
2022/09/28 01:48:25;;;;;;;2.83;2.30;;;9.70;99.90;;;;;;5006338;28;20081;-43
2022/09/28 01:50:56;;;;;;;2.83;2.55;;;9.70;99.90;;;;;;5012490;28;20425;-44
2022/09/28 01:53:27;;;;;;;3.55;2.72;;;9.70;99.90;;;;;;5012211;28;20077;-44
2022/09/28 01:56:39;;;;;;;6.43;3.10;;;9.70;99.90;;;;;;5012193;28;20370;-47
2022/09/28 01:59:14;;;;;;;4.30;3.45;;;9.80;99.90;;;;;;5009309;28;20034;-45
2022/09/28 02:01:44;;;;;;;6.45;2.45;;;9.80;99.90;;;;;;5012635;28;20022;-45
2022/09/28 02:04:18;;;;;;;4.28;2.50;;;9.80;99.90;;;;;;5011942;28;20034;-45
2022/09/28 02:07:01;;;;;;;5.75;2.40;;;9.90;99.90;;;;;;5012391;28;20084;-45
2022/09/28 02:09:54;;;;;;;4.07;2.08;;;9.80;99.90;;;;;;5012052;28;20030;-43
2022/09/28 02:12:29;;;;;;;2.88;1.60;;;9.80;99.90;;;;;;5012294;28;20026;-49
2022/09/28 02:15:04;;;;;;;3.42;2.40;;;9.80;99.90;;;;;;5012179;28;20112;-46
2022/09/28 02:17:30;;;;;;;2.78;2.08;;;9.80;99.90;;;;;;5012315;28;20030;-48
2022/09/28 02:19:55;;;;;;;6.57;2.50;;;9.80;99.90;;;;;;5011746;28;20109;-47
2022/09/28 02:22:25;;;;;;;2.42;1.98;;;9.80;99.90;;;;;;5012021;28;20473;-45
2022/09/28 02:25:00;;;;;;;2.47;1.85;;;9.80;99.90;;;;;;5012037;28;20440;-47
2022/09/28 02:27:52;;;;;;;4.50;2.17;;;9.80;99.90;;;;;;5012037;28;20401;-47
2022/09/28 02:30:18;;;;;;;4.30;2.13;;;9.90;99.90;;;;;;5011637;28;20030;-45
2022/09/28 02:32:48;;;;;;;2.88;2.45;;;9.90;99.90;;;;;;5011708;28;20037;-45
2022/09/28 02:35:17;;;;;;;2.60;2.38;;;10.00;99.90;;;;;;5011921;28;20375;-44
2022/09/28 02:37:43;;;;;;;3.05;2.42;;;10.00;99.90;;;;;;5010451;28;20117;-45
2022/09/28 02:40:18;;;;;;;2.25;2.08;;;10.00;99.90;;;;;;5011626;28;20033;-44
2022/09/28 02:43:08;;;;;;;2.75;2.25;;;10.00;99.90;;;;;;5011416;28;20030;-43
2022/09/28 02:45:52;;;;;;;3.17;2.45;;;10.00;99.90;;;;;;5011805;28;20026;-45
2022/09/28 02:48:36;;;;;;;4.32;2.40;;;10.00;99.90;;;;;;5011597;28;20375;-44
2022/09/28 02:51:49;;;;;;;2.45;1.95;;;10.00;99.90;;;;;;5011484;28;20030;-43
2022/09/28 02:54:29;;;;;;;2.80;2.17;;;10.00;99.90;;;;;;4950930;28;20069;-44
2022/09/28 02:57:04;;;;;;;5.85;2.60;;;9.90;99.90;;;;;;5011470;28;20056;-45
2022/09/28 02:59:43;;;;;;;8.27;2.60;;;10.00;99.90;;;;;;5010121;28;20042;-47
2022/09/28 03:02:15;;;;;;;3.40;2.33;;;10.00;99.90;;;;;;5011556;28;20554;-44
2022/09/28 03:05:02;;;;;;;3.40;2.30;;;9.90;99.90;;;;;;5011440;28;20033;-45
2022/09/28 03:07:40;;;;;;;3.67;3.03;;;9.90;99.90;;;;;;5011442;28;20413;-43
2022/09/28 03:10:18;;;;;;;2.97;2.40;;;9.90;99.90;;;;;;5011296;28;20099;-46
2022/09/28 03:12:46;;;;;;;2.00;1.90;;;9.90;99.90;;;;;;5011219;28;20057;-47
2022/09/28 03:15:25;;;;;;;3.33;1.65;;;9.90;99.90;;;;;;5011490;28;20033;-48
2022/09/28 03:17:51;;;;;;;2.20;1.23;;;9.90;99.90;;;;;;5013458;28;20057;-48
2022/09/28 03:20:17;;;;;;;2.25;1.17;;;9.90;99.90;;;;;;5014925;28;20026;-43
2022/09/28 03:22:43;;;;;;;2.90;1.17;;;9.90;99.90;;;;;;5015027;28;20057;-45
2022/09/28 03:25:09;;;;;;;3.08;1.60;;;9.90;99.90;;;;;;5015158;28;20033;-47
2022/09/28 03:27:34;;;;;;;3.03;1.52;;;9.90;99.90;;;;;;5017132;28;20088;-44
2022/09/28 03:30:00;;;;;;;3.97;1.05;;;9.90;99.90;;;;;;5016955;28;20490;-45
2022/09/28 03:32:26;;;;;;;2.33;1.60;;;9.80;99.90;;;;;;5015232;28;20022;-45
2022/09/28 03:34:51;;;;;;;1.40;1.30;;;9.80;99.90;;;;;;5014727;28;20026;-46
2022/09/28 03:37:17;;;;;;;2.80;1.13;;;9.90;99.90;;;;;;5015059;28;20490;-40
2022/09/28 03:39:42;;;;;;;3.33;1.13;;;9.80;99.90;;;;;;5014671;28;20130;-44
2022/09/28 03:42:08;;;;;;;5.53;1.50;;;9.80;99.90;;;;;;5014661;28;20038;-45
2022/09/28 03:44:34;;;;;;;1.80;1.13;;;9.80;99.90;;;;;;5014796;28;20026;-45
2022/09/28 03:46:59;;;;;;;1.13;1.10;;;9.80;99.90;;;;;;5014585;28;20112;-49
2022/09/28 03:49:25;;;;;;;0.82;0.82;;;9.80;99.90;;;;;;5014501;28;20125;-47
2022/09/28 03:51:51;;;;;;;1.33;1.20;;;9.90;99.90;;;;;;5015088;28;20521;-47
2022/09/28 03:54:16;;;;;;;1.63;0.80;;;9.80;99.90;;;;;;5015387;28;20028;-46
2022/09/28 03:56:41;;;;;;;0.75;0.75;;;9.80;99.90;;;;;;5014574;28;20105;-45
2022/09/28 03:59:07;;;;;;;2.00;1.10;;;9.70;99.90;;;;;;5014798;28;20033;-47
2022/09/28 04:01:32;;;;;;;1.58;1.25;;;9.80;99.90;;;;;;5014583;28;20053;-43
2022/09/28 04:03:58;;;;;;;4.78;0.90;;;9.80;99.90;;;;;;5013217;28;20091;-48
2022/09/28 04:06:24;;;;;;;1.98;0.90;;;9.80;99.90;;;;;;5014395;28;20034;-44
2022/09/28 04:08:50;;;;;;;1.20;0.80;;;9.80;99.90;;;;;;5014244;28;20494;-44
2022/09/28 04:11:16;;;;;;;3.00;0.98;;;9.70;99.90;;;;;;5014310;28;20033;-48
2022/09/28 04:13:42;;;;;;;1.23;0.57;;;9.70;99.90;;;;;;5013740;28;20022;-45
2022/09/28 04:16:09;;;;;;;1.65;0.60;;;9.70;99.90;;;;;;5014043;28;20029;-46
2022/09/28 04:18:34;;;;;;;0.50;0.50;;;9.70;99.90;;;;;;5014026;28;20091;-46
2022/09/28 04:21:05;;;;;;;0.68;0.65;;;9.60;99.90;;;;;;5012811;28;20022;-44
2022/09/28 04:23:31;;;;;;;1.75;0.70;;;9.60;99.90;;;;;;5013891;28;20029;-46
2022/09/28 04:25:57;;;;;;;0.73;0.73;;;9.60;99.90;;;;;;5013926;28;20026;-45
2022/09/28 04:31:13;;;;;;;0.75;0.75;;;9.50;99.90;;;;;;5013999;28;20037;-43
2022/09/28 04:33:38;;;;;;;1.13;1.02;;;9.40;99.90;;;;;;5013326;28;20104;-46
2022/09/28 04:36:04;;;;;;;1.27;0.88;;;9.40;99.90;;;;;;5013707;28;20117;-51
2022/09/28 04:38:30;;;;;;;0.93;0.90;;;9.40;99.90;;;;;;5013585;28;20018;-47
2022/09/28 04:40:56;;;;;;;0.93;0.80;;;9.40;99.90;;;;;;5013593;28;20038;-48
2022/09/28 04:43:21;;;;;;;1.27;0.70;;;9.40;99.90;;;;;;5013467;28;20378;-50
2022/09/28 04:45:47;;;;;;;1.70;0.90;;;9.30;99.90;;;;;;5013581;28;20107;-48
2022/09/28 04:48:12;;;;;;;1.80;0.93;;;9.30;99.90;;;;;;5013325;28;20034;-47
2022/09/28 04:50:38;;;;;;;0.90;0.90;;;9.30;99.90;;;;;;5013589;28;20248;-46
2022/09/28 04:53:03;;;;;;;2.65;1.10;;;9.30;99.90;;;;;;5013315;28;20029;-45
2022/09/28 04:55:31;;;;;;;0.85;0.85;;;9.30;99.90;;;;;;5012815;28;20037;-46
2022/09/28 04:58:00;;;;;;;0.80;0.80;;;9.30;99.90;;;;;;5013759;28;20034;-43
2022/09/28 05:00:25;;;;;;;3.88;0.90;;;9.30;99.90;;;;;;5013142;28;20401;-50
2022/09/28 05:02:52;;;;;;;0.85;0.85;;;9.40;99.90;;;;;;5012856;28;20125;-44
2022/09/28 05:05:18;;;;;;;3.40;0.80;;;9.30;99.90;;;;;;5013172;28;20056;-48
2022/09/28 05:07:44;;;;;;;1.08;0.88;;;9.40;99.90;;;;;;5013378;28;20026;-49
2022/09/28 05:10:10;;;;;;;0.90;0.90;;;9.30;99.90;;;;;;5013073;28;20528;-48
2022/09/28 05:12:35;;;;;;;1.38;0.80;;;9.30;99.90;;;;;;5012914;28;20022;-46
2022/09/28 05:15:01;;;;;;;1.50;0.90;;;9.30;99.90;;;;;;5013023;28;20030;-44
2022/09/28 05:17:26;;;;;;;0.82;0.75;;;9.30;99.90;;;;;;5013033;28;20421;-45
2022/09/28 05:19:52;;;;;;;2.50;0.93;;;9.30;99.90;;;;;;5012772;28;20033;-46
2022/09/28 05:22:17;;;;;;;1.05;0.90;;;9.30;99.90;;;;;;5012667;28;20044;-44
2022/09/28 05:24:45;;;;;;;1.85;1.00;;;9.40;99.90;;;;;;5012909;28;20026;-45
2022/09/28 05:27:10;;;;;;;1.23;0.88;;;9.40;99.90;;;;;;5012742;28;20029;-50
2022/09/28 05:29:36;;;;;;;2.72;1.00;;;9.40;99.90;;;;;;5013022;28;20485;-44
2022/09/28 05:32:01;;;;;;;1.25;1.00;;;9.40;99.90;;;;;;5012319;28;20037;-47
2022/09/28 05:34:27;;;;;;;0.95;0.80;;;9.30;99.90;;;;;;5012646;28;20029;-46
2022/09/28 05:36:53;;;;;;;1.20;1.00;;;9.30;99.90;;;;;;5012640;28;20100;-49
2022/09/28 05:39:18;;;;;;;2.30;1.35;;;9.30;99.90;;;;;;5012495;28;20057;-46
2022/09/28 05:41:44;;;;;;;1.25;1.17;;;9.30;99.90;;;;;;5012269;28;20029;-50
2022/09/28 05:44:09;;;;;;;2.92;1.30;;;9.30;99.90;;;;;;5012353;28;20044;-46
2022/09/28 05:46:35;;;;;;;5.43;1.40;;;9.30;99.90;;;;;;5012316;28;20034;-44
2022/09/28 05:49:00;;;;;;;2.67;1.23;;;9.20;99.90;;;;;;5012100;28;20038;-45
2022/09/28 05:51:26;;;;;;;3.35;1.30;;;9.20;99.90;;;;;;5012338;28;20030;-46
2022/09/28 05:53:55;;;;;;;1.67;1.50;;;9.20;99.90;;;;;;5012056;28;20505;-45
2022/09/28 05:56:21;;;;;;;2.53;1.50;;;9.10;99.90;;;;;;5011942;28;20025;-46
2022/09/28 05:58:46;;;;;;;1.75;1.25;;;9.20;99.90;;;;;;5012009;28;20140;-45
2022/09/28 06:01:11;;;;;;;1.30;1.20;;;9.20;99.90;;;;;;5011848;28;20030;-46
2022/09/28 06:03:37;;;;;;;1.88;1.10;;;9.20;99.90;;;;;;5011884;28;20029;-47
2022/09/28 06:06:03;;;;;;;1.00;1.00;;;9.20;99.90;;;;;;5011906;28;20108;-44
2022/09/28 06:08:30;;;;;;;1.55;1.45;;;9.20;99.90;;;;;;5012206;28;20018;-48
2022/09/28 06:11:00;;;;;;;0.85;0.85;;;9.20;99.90;;;;;;5012436;28;20018;-44
2022/09/28 06:13:26;;;;;;;1.02;0.90;;;9.20;99.90;;;;;;5012287;28;20014;-48
2022/09/28 06:15:52;;;;;;;0.77;0.77;;;9.30;99.90;;;;;;5011883;28;20032;-43
2022/09/28 06:18:17;;;;;;;1.63;1.05;;;9.30;99.90;;;;;;5011760;28;20022;-45
2022/09/28 06:20:43;;;;;;;2.08;1.00;;;9.40;99.90;;;;;;5046889;23;20045;-43
2022/09/28 06:23:10;;;;;;;1.20;1.02;;;9.40;99.90;;;;;;5030932;28;20032;-44
2022/09/28 06:25:36;;;;;;;1.48;1.13;;;9.50;99.90;;;;;;5031547;28;20049;-47
2022/09/28 06:28:08;;;;;;;3.53;1.17;;;9.70;99.90;;;;;;5031546;28;20053;-48
2022/09/28 06:30:37;;;;;;;1.08;0.80;;;10.20;99.90;;;;;;5045416;28;20025;-44
2022/09/28 06:33:03;;;;;;;1.02;0.90;;;10.70;99.90;;;;;;5051805;28;20049;-47
2022/09/28 06:35:30;;;;;;;0.93;0.85;;;11.00;99.90;;;;;;5051609;28;20036;-44
2022/09/28 06:37:57;;;;;;;2.17;1.27;;;10.90;99.90;;;;;;5051426;28;20396;-44
2022/09/28 06:40:23;;;;;;;3.70;1.20;;;11.10;99.90;;;;;;5051211;28;20512;-42
2022/09/28 06:43:08;;;;;;;0.82;0.75;;;11.30;99.90;;;;;;5050969;28;20043;-47
2022/09/28 06:45:35;;;;;;;1.73;1.43;;;11.80;99.90;;;;;;5051528;28;20078;-41
2022/09/28 06:48:01;;;;;;;1.70;1.20;;;12.60;99.90;;;;;;5049725;28;20275;-45
2022/09/28 06:50:33;;;;;;;1.23;0.82;;;13.40;99.90;;;;;;5051186;28;20048;-50
2022/09/28 06:53:00;;;;;;;1.48;0.93;;;14.00;99.90;;;;;;5051209;28;20017;-46
2022/09/28 06:55:26;;;;;;;0.88;0.75;;;14.70;99.90;;;;;;5051179;28;20456;-44
2022/09/28 06:58:04;;;;;;;1.63;1.13;;;15.30;99.90;;;;;;5051418;28;20534;-46
2022/09/28 07:00:32;;;;;;;2.58;1.00;;;16.00;99.90;;;;;;5050441;28;20488;-44
2022/09/28 07:03:02;;;;;;;0.60;0.60;;;16.50;99.90;;;;;;5051148;28;20035;-46
2022/09/28 07:05:28;;;;;;;0.68;0.63;;;16.80;99.90;;;;;;5051432;28;20033;-45
2022/09/28 07:07:55;;;;;;;2.30;1.02;;;17.10;99.90;;;;;;5051615;28;20024;-46
2022/09/28 07:10:26;;;;;;;0.70;0.70;;;17.30;99.90;;;;;;5051278;28;20029;-48
2022/09/28 07:12:54;;;;;;;3.13;1.10;;;17.60;99.90;;;;;;5051429;28;20154;-47
2022/09/28 07:15:20;;;;;;;0.85;0.57;;;18.10;99.90;;;;;;5050203;28;20028;-45
2022/09/28 07:17:46;;;;;;;0.52;0.50;;;18.40;99.90;;;;;;5051288;28;20028;-48
2022/09/28 07:20:12;;;;;;;1.38;0.55;;;18.80;99.00;;;;;;5051341;28;20118;-43
2022/09/28 07:22:38;;;;;;;0.63;0.60;;;18.90;99.20;;;;;;5051094;28;20040;-46
2022/09/28 07:25:05;;;;;;;1.95;1.75;;;18.90;99.40;;;;;;5050233;28;20029;-47
2022/09/28 07:27:30;;;;;;;1.73;0.60;;;19.10;97.10;;;;;;5051250;28;20021;-47
2022/09/28 07:29:57;;;;;;;0.57;0.50;;;19.40;97.10;;;;;;5051193;28;20025;-46
2022/09/28 07:32:23;;;;;;;0.70;0.60;;;19.60;96.10;;;;;;5050908;28;20139;-47
2022/09/28 07:34:48;;;;;;;1.00;0.60;;;19.60;95.90;;;;;;5051583;28;20056;-44
2022/09/28 07:37:17;;;;;;;1.15;1.05;;;19.70;96.00;;;;;;5051363;28;20032;-45
2022/09/28 07:42:29;;;;;;;3.53;1.00;;;17.60;98.00;;;;;;5051715;28;20524;-49
2022/09/28 07:44:55;;;;;;;0.80;0.60;;;16.30;99.90;;;;;;5050388;28;20025;-44
2022/09/28 07:47:25;;;;;;;1.10;0.70;;;15.30;99.90;;;;;;5050925;28;20495;-44
2022/09/28 07:49:53;;;;;;;4.38;0.88;;;14.50;99.90;;;;;;5050902;28;20083;-45
2022/09/28 07:52:24;;;;;;;1.77;0.63;;;13.90;99.90;;;;;;5050909;28;20075;-48
2022/09/28 07:54:53;;;;;;;1.48;0.70;;;13.40;99.90;;;;;;5049873;28;20021;-46
2022/09/28 07:57:20;;;;;;;2.40;1.20;;;13.10;99.90;;;;;;5050448;28;20025;-47
2022/09/28 07:59:48;;;;;;;0.98;0.75;;;12.80;99.90;;;;;;5050854;28;20031;-45
2022/09/28 08:02:15;;;;;;;1.85;0.70;;;12.50;99.90;;;;;;5050685;28;20021;-47
2022/09/28 08:04:40;;;;;;;1.45;0.85;;;12.40;99.90;;;;;;5054062;28;20029;-46
2022/09/28 08:07:10;;;;;;;1.23;0.80;;;12.30;99.90;;;;;;5054648;28;20021;-46
2022/09/28 08:09:36;;;;;;;1.48;0.52;;;12.20;99.90;;;;;;5054442;28;20025;-44
2022/09/28 08:12:03;;;;;;;2.15;0.60;;;12.20;99.90;;;;;;5054034;28;20447;-44
2022/09/28 08:14:33;;;;;;;0.95;0.70;;;12.20;99.90;;;;;;5054253;28;20039;-53
2022/09/28 08:16:59;;;;;;;0.95;0.70;;;12.20;99.90;;;;;;5054303;28;20025;-42
2022/09/28 08:19:25;;;;;;;2.90;0.85;;;12.20;99.90;;;;;;5053966;28;20028;-44
2022/09/28 08:21:50;;;;;;;1.73;0.80;;;12.10;99.90;;;;;;5052981;28;20029;-46
2022/09/28 08:24:17;;;;;;;1.38;0.88;;;12.20;99.90;;;;;;5052811;28;20119;-43
2022/09/28 08:26:43;;;;;;;2.40;0.80;;;12.30;99.90;;;;;;5054696;28;20063;-43
2022/09/28 08:29:09;;;;;;;1.33;1.23;;;12.50;99.90;;;;;;5053985;28;20465;-47
2022/09/28 08:31:35;;;;;;;2.88;1.10;;;12.60;99.90;;;;;;5052598;28;20116;-46
2022/09/28 08:34:01;;;;;;;0.98;0.77;;;12.60;99.90;;;;;;5053658;28;20101;-47
2022/09/28 08:36:27;;;;;;;1.88;0.95;;;12.70;99.90;;;;;;5054101;28;20056;-44
2022/09/28 08:38:53;;;;;;;1.45;0.75;;;12.80;99.90;;;;;;5054123;28;20432;-43
2022/09/28 08:41:32;;;;;;;7.35;1.77;;;12.90;99.90;;;;;;5054402;28;20057;-43
2022/09/28 08:44:24;;;;;;;1.67;1.17;;;13.00;99.90;;;;;;5054625;28;20036;-44
2022/09/28 08:46:55;;;;;;;1.38;1.30;;;13.00;99.90;;;;;;5053473;28;20087;-44
2022/09/28 08:49:46;;;;;;;0.93;0.80;;;12.90;99.90;;;;;;5053857;28;20118;-45
2022/09/28 08:52:19;;;;;;;3.20;0.70;;;12.90;99.90;;;;;;5051117;28;20029;-42
2022/09/28 08:55:10;;;;;;;4.28;1.00;;;13.00;99.90;;;;;;5054029;28;20032;-47
2022/09/28 08:58:02;;;;;;;1.98;0.90;;;13.10;99.90;;;;;;5053679;28;20094;-48
2022/09/28 09:00:48;;;;;;;4.85;0.88;;;13.20;99.90;;;;;;5043102;28;20037;-47
2022/09/28 09:03:29;;;;;;;3.65;0.85;;;14.50;99.90;;;;;;5053515;28;20036;-47
2022/09/28 09:06:01;;;;;;;4.57;0.90;;;15.90;99.90;;;;;;5053866;28;20492;-49
2022/09/28 09:08:31;;;;;;;2.97;1.10;;;16.90;99.70;;;;;;5053513;28;20037;-43
2022/09/28 09:11:17;;;;;;;0.85;0.60;;;17.70;98.10;;;;;;5053372;28;20056;-44
2022/09/28 09:14:01;;;;;;;1.40;0.75;;;18.30;97.80;;;;;;5053401;28;20029;-46
2022/09/28 09:16:47;;;;;;;1.30;0.80;;;19.20;96.70;;;;;;5052784;28;20071;-47
2022/09/28 09:19:34;;;;;;;1.35;0.57;;;20.20;95.40;;;;;;5053157;28;20435;-48
2022/09/28 09:22:12;;;;;;;4.28;0.63;;;20.40;92.80;;;;;;5052800;28;20492;-45
2022/09/28 09:24:46;;;;;;;2.63;0.80;;;20.60;92.50;;;;;;5053132;28;20033;-48
2022/09/28 09:27:17;;;;;;;3.10;0.77;;;20.60;92.10;;;;;;5053092;28;20021;-42
2022/09/28 09:30:02;;;;;;;3.10;0.82;;;19.50;92.70;;;;;;5053062;28;20029;-48
2022/09/28 09:32:40;;;;;;;0.73;0.52;;;18.80;94.10;;;;;;5053243;28;20021;-49
2022/09/28 09:35:26;;;;;;;2.25;0.60;;;18.90;95.50;;;;;;5052645;28;20508;-46
2022/09/28 09:38:16;;;;;;;1.25;0.60;;;18.20;95.50;;;;;;5052732;28;20108;-47
2022/09/28 09:41:05;;;;;;;5.03;0.82;;;17.30;96.30;;;;;;5052586;28;20017;-44
2022/09/28 09:44:25;;;;;;;0.80;0.70;;;17.10;96.90;;;;;;5051471;28;20025;-44
2022/09/28 09:47:05;;;;;;;3.72;0.90;;;17.30;97.80;;;;;;5047404;28;20036;-47
2022/09/28 09:49:34;;;;;;;2.05;0.52;;;17.30;96.40;;;;;;5052199;28;20017;-42
2022/09/28 09:52:17;;;;;;;2.55;0.60;;;17.10;97.10;;;;;;5052458;28;20032;-48
2022/09/28 09:55:13;;;;;;;1.55;0.65;;;17.10;98.10;;;;;;5052444;28;20488;-47
2022/09/28 09:57:57;;;;;;;0.57;0.57;;;16.80;97.30;;;;;;5052818;28;20033;-44
2022/09/28 10:00:23;;;;;;;0.98;0.60;;;16.30;97.20;;;;;;5052339;28;20037;-44
2022/09/28 10:02:49;;;;;;;0.73;0.40;;;15.80;98.10;;;;;;5052380;28;20027;-46
2022/09/28 10:05:23;;;;;;;0.55;0.50;;;15.40;98.60;;;;;;5052195;28;20083;-44
2022/09/28 10:07:54;;;;;;;3.17;0.52;;;15.20;99.10;;;;;;5052284;28;20029;-45
2022/09/28 10:10:32;;;;;;;2.90;0.50;;;14.80;99.60;;;;;;5050668;28;20087;-44
2022/09/28 10:12:57;;;;;;;2.08;0.63;;;14.40;99.90;;;;;;5052791;28;20112;-45
2022/09/28 10:15:26;;;;;;;1.20;0.60;;;14.10;99.90;;;;;;5052211;28;20108;-46
2022/09/28 10:17:54;;;;;;;0.95;0.80;;;13.90;99.90;;;;;;5050897;28;20035;-46
2022/09/28 10:20:21;;;;;;;2.95;0.60;;;13.70;99.90;;;;;;5051870;28;20104;-44
2022/09/28 10:22:49;;;;;;;1.10;0.80;;;13.60;99.90;;;;;;5051842;28;20055;-49
2022/09/28 10:25:16;;;;;;;2.20;1.13;;;13.40;99.90;;;;;;5052328;28;20040;-47
2022/09/28 10:27:44;;;;;;;1.35;0.90;;;13.30;99.90;;;;;;5051358;28;20048;-47
2022/09/28 10:30:22;;;;;;;2.05;1.00;;;13.20;99.90;;;;;;5052299;28;20112;-49
2022/09/28 10:32:49;;;;;;;2.53;1.25;;;13.10;99.90;;;;;;5051802;28;20151;-49
2022/09/28 10:35:18;;;;;;;3.85;1.20;;;13.10;99.90;;;;;;5052344;28;20021;-45
2022/09/28 10:37:58;;;;;;;2.08;1.00;;;13.10;99.90;;;;;;5051998;28;20369;-45
2022/09/28 10:40:43;;;;;;;3.60;0.68;;;13.00;99.90;;;;;;5051585;28;20028;-45
2022/09/28 10:43:17;;;;;;;3.35;0.85;;;13.00;99.90;;;;;;5050869;28;20029;-48
2022/09/28 10:45:43;;;;;;;0.57;0.57;;;13.00;99.90;;;;;;5051909;28;20108;-44
2022/09/28 10:48:19;;;;;;;1.13;0.65;;;13.00;99.90;;;;;;5051604;28;20174;-48
2022/09/28 10:51:05;;;;;;;0.93;0.90;;;13.00;99.90;;;;;;5051874;28;20405;-46
2022/09/28 10:53:30;;;;;;;0.60;0.60;;;13.10;99.90;;;;;;5049908;28;20025;-43
2022/09/28 10:56:05;;;;;;;0.85;0.60;;;13.20;99.90;;;;;;5051366;28;20113;-44
2022/09/28 10:58:39;;;;;;;1.08;0.70;;;13.30;99.90;;;;;;5050341;28;20382;-44
2022/09/28 11:01:25;;;;;;;4.05;1.15;;;13.40;99.90;;;;;;5051198;28;20017;-46
2022/09/28 11:03:59;;;;;;;1.45;0.77;;;13.60;99.90;;;;;;5051590;28;20028;-45
2022/09/28 11:06:31;;;;;;;1.23;0.60;;;13.70;99.90;;;;;;5051574;28;20032;-48
2022/09/28 11:09:00;;;;;;;20.35;14.05;;;13.80;99.90;;;;;;5051389;28;20032;-40
2022/09/28 11:11:28;;;;;;;2.28;1.90;;;13.90;99.90;;;;;;5050283;28;20535;-44
2022/09/28 11:13:59;;;;;;;52.10;31.40;;;14.00;99.90;;;;;;5051600;28;20108;-44
2022/09/28 11:16:30;;;;;;;2.35;1.80;;;14.00;99.90;;;;;;5051096;28;20024;-45
2022/09/28 11:19:01;;;;;;;1.08;0.82;;;14.00;99.90;;;;;;5049887;28;20055;-48
2022/09/28 11:21:31;;;;;;;2.90;0.70;;;14.10;99.90;;;;;;5051344;28;20036;-43
2022/09/28 11:24:07;;;;;;;3.85;0.68;;;14.10;99.90;;;;;;5051208;28;20025;-43
2022/09/28 11:26:44;;;;;;;1.20;0.50;;;14.20;99.90;;;;;;5049453;28;20128;-44
2022/09/28 11:29:40;;;;;;;0.30;0.30;;;14.30;99.90;;;;;;5049463;28;20396;-44
2022/09/28 11:32:08;;;;;;;1.80;0.70;;;14.30;99.90;;;;;;5048945;28;20165;-46
2022/09/28 11:34:42;;;;;;;2.33;0.70;;;14.50;99.90;;;;;;5050934;28;20029;-41
2022/09/28 11:37:26;;;;;;;2.97;0.63;;;14.60;99.90;;;;;;5051485;28;20029;-41
2022/09/28 11:39:59;;;;;;;2.38;0.47;;;14.60;99.90;;;;;;5054410;28;20025;-46
2022/09/28 11:42:49;;;;;;;2.60;0.40;;;14.60;99.90;;;;;;5054978;28;20053;-43
2022/09/28 11:45:42;;;;;;;3.53;0.70;;;14.60;99.90;;;;;;5054964;28;20119;-41
2022/09/28 11:48:14;;;;;;;1.65;0.63;;;14.60;99.90;;;;;;5054227;28;20063;-50
2022/09/28 11:51:02;;;;;;;0.47;0.35;;;14.80;99.90;;;;;;5054536;28;20021;-47
2022/09/28 11:54:13;;;;;;;2.65;0.50;;;14.80;99.90;;;;;;5054610;28;20029;-43
2022/09/28 11:56:42;;;;;;;3.42;0.60;;;15.00;99.90;;;;;;5031942;28;20037;-43
2022/09/28 11:59:14;;;;;;;1.23;0.60;;;14.90;99.40;;;;;;5051755;28;20037;-48
2022/09/28 12:01:54;;;;;;;1.15;1.05;;;14.90;99.70;;;;;;5054491;28;20056;-49
2022/09/28 12:04:39;;;;;;;0.68;0.68;;;14.80;99.90;;;;;;5054130;28;20039;-43
2022/09/28 12:07:25;;;;;;;1.55;0.60;;;14.90;99.90;;;;;;5054389;28;20017;-43
2022/09/28 12:10:07;;;;;;;1.20;0.70;;;14.90;99.90;;;;;;5054417;28;20025;-45
2022/09/28 12:12:40;;;;;;;1.73;0.70;;;15.00;99.90;;;;;;5052627;28;20159;-45
2022/09/28 12:15:20;;;;;;;0.63;0.45;;;15.00;99.70;;;;;;5054321;28;20385;-43
2022/09/28 12:17:52;;;;;;;0.60;0.50;;;15.10;99.70;;;;;;5053636;28;20033;-43
2022/09/28 12:20:25;;;;;;;1.73;0.40;;;15.10;99.80;;;;;;5054060;28;20149;-44
2022/09/28 12:23:04;;;;;;;2.20;0.68;;;15.10;99.60;;;;;;5053722;28;20033;-47
2022/09/28 12:25:38;;;;;;;2.40;0.63;;;15.00;99.50;;;;;;5055279;28;20032;-45
2022/09/28 12:28:27;;;;;;;0.43;0.43;;;15.00;99.30;;;;;;5054018;28;20444;-44
2022/09/28 12:30:56;;;;;;;1.48;1.38;;;15.00;99.60;;;;;;5053510;28;20029;-44
2022/09/28 12:33:21;;;;;;;2.83;2.50;;;14.90;99.30;;;;;;5053575;28;20112;-42
2022/09/28 12:36:29;;;;;;;1.35;1.15;;;14.90;99.20;;;;;;5053760;28;20075;-43
2022/09/28 12:39:03;;;;;;;3.15;0.60;;;14.90;99.70;;;;;;5053855;28;20103;-44
2022/09/28 12:42:06;;;;;;;1.77;1.00;;;14.90;99.40;;;;;;5053940;28;20510;-45
2022/09/28 12:44:46;;;;;;;1.13;0.60;;;14.80;99.10;;;;;;5053558;28;20033;-45
2022/09/28 12:47:28;;;;;;;0.40;0.40;;;14.70;99.70;;;;;;5053641;28;20116;-44
2022/09/28 12:50:06;;;;;;;3.13;0.73;;;14.50;99.90;;;;;;5052313;28;20021;-44
2022/09/28 12:52:56;;;;;;;1.15;0.73;;;14.50;99.90;;;;;;5053346;28;20028;-43
2022/09/28 12:55:55;;;;;;;2.10;0.60;;;14.50;99.90;;;;;;5053362;28;20017;-44
2022/09/28 12:59:07;;;;;;;0.55;0.55;;;14.60;99.40;;;;;;5053970;28;20048;-43
2022/09/28 13:01:57;;;;;;;0.52;0.52;;;14.50;98.90;;;;;;5043155;28;20047;-46
2022/09/28 13:04:53;;;;;;;1.85;0.50;;;14.40;99.40;;;;;;5053391;28;20036;-45
2022/09/28 13:07:52;;;;;;;0.98;0.57;;;14.40;99.60;;;;;;5053237;28;20108;-44
2022/09/28 13:10:24;;;;;;;0.50;0.50;;;14.30;99.90;;;;;;5053322;28;20025;-44
2022/09/28 13:13:05;;;;;;;1.25;0.70;;;14.20;99.90;;;;;;5053044;28;20036;-45
2022/09/28 13:15:59;;;;;;;0.50;0.50;;;14.20;99.90;;;;;;5053178;28;20021;-44
2022/09/28 13:18:37;;;;;;;1.05;0.60;;;14.30;99.90;;;;;;5052991;28;20065;-48
2022/09/28 13:21:14;;;;;;;2.70;0.93;;;14.20;99.90;;;;;;5051603;28;20119;-43
2022/09/28 13:23:46;;;;;;;1.63;0.52;;;14.30;99.90;;;;;;5052622;28;20100;-48
2022/09/28 13:26:14;;;;;;;1.48;1.00;;;14.40;99.90;;;;;;5053182;28;20028;-44